createdAt,value
2022-07-31T00:01:29.893Z,96949.14
2022-07-31T00:04:02.735Z,96951.77
2022-07-31T00:06:35.415Z,96955.92
2022-07-31T00:09:52.291Z,96956.55
2022-07-31T00:12:01.135Z,96960.06
2022-07-31T00:14:34.016Z,96955.98
2022-07-31T00:17:07.102Z,96960.77
2022-07-31T00:19:39.894Z,96965.24
2022-07-31T00:22:12.977Z,96964.61
2022-07-31T00:24:45.658Z,96965.27
2022-07-31T00:27:18.337Z,96964.96
2022-07-31T00:29:51.295Z,96967.89
2022-07-31T00:32:24.017Z,96966.93
2022-07-31T00:34:59.854Z,96962.16
2022-07-31T00:37:33.254Z,96967.40
2022-07-31T00:40:13.535Z,96968.91
2022-07-31T00:42:46.578Z,96966.88
2022-07-31T00:45:19.296Z,96967.84
2022-07-31T00:47:58.734Z,96963.83
2022-07-31T00:50:31.775Z,96962.09
2022-07-31T00:53:04.414Z,96961.22
2022-07-31T00:55:50.999Z,96957.09
2022-07-31T00:58:24.217Z,96956.02
2022-07-31T01:01:00.573Z,96952.80
2022-07-31T01:03:36.414Z,96951.19
2022-07-31T01:06:10.335Z,96952.80
2022-07-31T01:08:43.174Z,96948.88
2022-07-31T01:11:19.735Z,96949.82
2022-07-31T01:13:57.697Z,96947.77
2022-07-31T01:16:33.934Z,96949.01
2022-07-31T01:19:13.818Z,96946.92
2022-07-31T01:21:56.293Z,96946.02
2022-07-31T01:24:59.738Z,96939.93
2022-07-31T01:27:53.975Z,96940.73
2022-07-31T01:30:31.050Z,96936.94
2022-07-31T01:33:08.855Z,96931.83
2022-07-31T01:35:45.229Z,96931.42
2022-07-31T01:38:23.256Z,96930.45
2022-07-31T01:41:03.055Z,96933.73
2022-07-31T01:43:39.535Z,96932.63
2022-07-31T01:46:15.816Z,96931.95
2022-07-31T01:48:51.474Z,96929.08
2022-07-31T01:51:26.376Z,96927.73
2022-07-31T01:54:02.177Z,96925.83
2022-07-31T01:56:36.496Z,96924.80
2022-07-31T01:59:12.348Z,96923.67
2022-07-31T02:02:17.896Z,96924.30
2022-07-31T02:04:52.135Z,96924.09
2022-07-31T02:07:30.114Z,96922.39
2022-07-31T02:10:06.334Z,96920.70
2022-07-31T02:12:41.934Z,96917.52
2022-07-31T02:15:16.856Z,96917.05
2022-07-31T02:17:52.174Z,96911.05
2022-07-31T02:20:26.185Z,96909.15
2022-07-31T02:23:01.977Z,96909.98
2022-07-31T02:25:37.176Z,96908.39
2022-07-31T02:28:13.697Z,96911.18
2022-07-31T02:30:49.295Z,96906.34
2022-07-31T02:33:26.176Z,96903.02
2022-07-31T02:36:00.378Z,96904.04
2022-07-31T02:38:36.062Z,96902.21
2022-07-31T02:41:11.744Z,96902.77
2022-07-31T02:43:46.216Z,96903.62
2022-07-31T02:46:26.978Z,96902.77
2022-07-31T02:49:00.809Z,96901.33
2022-07-31T02:51:42.510Z,96896.55
2022-07-31T02:54:16.579Z,96891.83
2022-07-31T02:56:52.056Z,96890.51
2022-07-31T02:59:25.020Z,96888.21
2022-07-31T03:02:05.194Z,96888.92
2022-07-31T03:04:41.695Z,96887.67
2022-07-31T03:07:17.816Z,96887.85
2022-07-31T03:09:51.940Z,96886.99
2022-07-31T03:12:53.974Z,96890.64
2022-07-31T03:15:29.336Z,96888.02
2022-07-31T03:18:08.457Z,96890.52
2022-07-31T03:20:52.137Z,96886.14
2022-07-31T03:23:27.426Z,96888.27
2022-07-31T03:26:08.857Z,96887.76
2022-07-31T03:28:43.460Z,96886.34
2022-07-31T03:31:16.498Z,96884.92
2022-07-31T03:33:50.056Z,96885.08
2022-07-31T03:36:23.137Z,96881.17
2022-07-31T03:38:56.176Z,96877.36
2022-07-31T03:41:38.535Z,96879.22
2022-07-31T03:44:10.497Z,96882.21
2022-07-31T03:46:46.140Z,96884.79
2022-07-31T03:49:20.045Z,96885.41
2022-07-31T03:51:51.095Z,96882.13
2022-07-31T03:54:24.296Z,96882.27
2022-07-31T03:57:07.697Z,96882.52
2022-07-31T03:59:48.020Z,96884.78
2022-07-31T04:02:22.383Z,96886.71
2022-07-31T04:05:00.337Z,96887.45
2022-07-31T04:07:31.137Z,96886.64
2022-07-31T04:10:04.458Z,96886.27
2022-07-31T04:12:37.017Z,96889.77
2022-07-31T04:15:11.415Z,96888.75
2022-07-31T04:17:44.139Z,96888.20
2022-07-31T04:20:17.096Z,96889.52
2022-07-31T04:22:50.579Z,96889.60
2022-07-31T04:25:43.817Z,96888.35
2022-07-31T04:28:34.985Z,96890.52
2022-07-31T04:31:08.577Z,96888.65
2022-07-31T04:33:48.283Z,96893.13
2022-07-31T04:36:30.622Z,96893.08
2022-07-31T04:39:06.455Z,96900.41
2022-07-31T04:41:40.256Z,96900.54
2022-07-31T04:44:13.135Z,96900.02
2022-07-31T04:47:07.937Z,96902.21
2022-07-31T04:49:45.777Z,96905.02
2022-07-31T04:52:22.901Z,96911.52
2022-07-31T04:54:57.019Z,96912.90
2022-07-31T04:57:30.418Z,96917.04
2022-07-31T05:00:05.855Z,96920.01
2022-07-31T05:02:39.097Z,96918.33
2022-07-31T05:05:12.777Z,96919.63
2022-07-31T05:07:48.016Z,96925.31
2022-07-31T05:10:44.219Z,96927.89
2022-07-31T05:13:18.016Z,96931.30
2022-07-31T05:15:50.738Z,96932.39
2022-07-31T05:18:23.457Z,96934.30
2022-07-31T05:21:17.457Z,96933.04
2022-07-31T05:24:33.181Z,96938.34
2022-07-31T05:27:18.496Z,96937.40
2022-07-31T05:29:55.097Z,96941.35
2022-07-31T05:32:28.796Z,96941.65
2022-07-31T05:35:01.778Z,96944.20
2022-07-31T05:37:35.469Z,96943.16
2022-07-31T05:40:11.495Z,96950.79
2022-07-31T05:43:17.420Z,96947.98
2022-07-31T05:46:10.216Z,96949.02
2022-07-31T05:48:43.698Z,96944.19
2022-07-31T05:51:17.377Z,96944.16
2022-07-31T05:53:53.338Z,96943.68
2022-07-31T05:56:44.701Z,96941.77
2022-07-31T05:59:19.138Z,96944.08
2022-07-31T06:01:50.399Z,96944.16
2022-07-31T06:04:25.459Z,96944.54
2022-07-31T06:06:58.137Z,96942.33
2022-07-31T06:09:31.139Z,96942.40
2022-07-31T06:12:04.108Z,96944.43
2022-07-31T06:14:35.215Z,96946.38
2022-07-31T06:17:44.109Z,96948.61
2022-07-31T06:20:37.149Z,96949.80
2022-07-31T06:23:14.556Z,96954.86
2022-07-31T06:25:58.535Z,96955.92
2022-07-31T06:28:32.897Z,96954.86
2022-07-31T06:31:25.015Z,96957.23
2022-07-31T06:34:02.627Z,96958.11
2022-07-31T06:36:42.459Z,96959.41
2022-07-31T06:39:21.554Z,96962.05
2022-07-31T06:42:23.818Z,96961.45
2022-07-31T06:45:18.398Z,96970.10
2022-07-31T06:48:21.338Z,96971.94
2022-07-31T06:51:21.114Z,96971.50
2022-07-31T06:53:55.540Z,96966.84
2022-07-31T06:56:28.618Z,96967.48
2022-07-31T06:59:04.098Z,96964.86
2022-07-31T07:01:39.342Z,96965.67
2022-07-31T07:04:12.379Z,96971.86
2022-07-31T07:06:44.938Z,96973.87
2022-07-31T07:09:17.775Z,96978.56
2022-07-31T07:11:54.499Z,96984.36
2022-07-31T07:14:27.699Z,96986.59
2022-07-31T07:17:07.303Z,96985.77
2022-07-31T07:19:43.257Z,96984.74
2022-07-31T07:22:16.336Z,96984.48
2022-07-31T07:24:49.060Z,96986.67
2022-07-31T07:27:27.217Z,96982.92
2022-07-31T07:29:59.059Z,96986.89
2022-07-31T07:32:31.617Z,96988.56
2022-07-31T07:35:09.656Z,96987.38
2022-07-31T07:37:59.266Z,96992.54
2022-07-31T07:40:33.221Z,96991.57
2022-07-31T07:43:07.583Z,96998.42
2022-07-31T07:45:42.115Z,96999.19
2022-07-31T07:48:14.778Z,96999.84
2022-07-31T07:51:12.899Z,97005.20
2022-07-31T07:53:59.499Z,97011.73
2022-07-31T07:56:52.656Z,97016.49
2022-07-31T07:59:38.736Z,97020.21
2022-07-31T08:02:23.778Z,97021.64
2022-07-31T08:04:57.859Z,97022.90
2022-07-31T08:07:42.659Z,97026.21
2022-07-31T08:10:34.936Z,97023.45
2022-07-31T08:13:15.062Z,97026.14
2022-07-31T08:16:07.301Z,97030.40
2022-07-31T08:18:52.301Z,97030.69
2022-07-31T08:21:25.420Z,97032.53
2022-07-31T08:23:58.740Z,97035.14
2022-07-31T08:26:51.457Z,97036.02
2022-07-31T08:29:28.719Z,97033.79
2022-07-31T08:32:13.539Z,97036.17
2022-07-31T08:35:13.417Z,97033.92
2022-07-31T08:37:59.304Z,97034.26
2022-07-31T08:40:43.855Z,97039.05
2022-07-31T08:46:11.139Z,97043.45
2022-07-31T08:48:47.026Z,97046.02
2022-07-31T08:51:24.816Z,97043.98
2022-07-31T08:54:04.619Z,97042.30
2022-07-31T08:56:39.419Z,97040.01
2022-07-31T08:59:17.979Z,97043.92
2022-07-31T09:01:57.336Z,97042.84
2022-07-31T09:04:32.915Z,97045.48
2022-07-31T09:07:06.514Z,97047.04
2022-07-31T09:09:51.312Z,97049.21
2022-07-31T09:12:35.116Z,97052.13
2022-07-31T09:15:26.867Z,97054.20
2022-07-31T09:18:00.139Z,97061.90
2022-07-31T09:20:32.177Z,97064.15
2022-07-31T09:23:12.058Z,97067.17
2022-07-31T09:25:57.257Z,97070.15
2022-07-31T09:28:37.659Z,97069.60
2022-07-31T09:31:12.261Z,97070.29
2022-07-31T09:34:05.178Z,97072.01
2022-07-31T09:36:46.974Z,97067.80
2022-07-31T09:39:52.587Z,97067.51
2022-07-31T09:42:48.528Z,97067.84
2022-07-31T09:45:30.859Z,97068.21
2022-07-31T09:48:17.117Z,97068.20
2022-07-31T09:51:01.423Z,97068.33
2022-07-31T09:53:46.058Z,97066.80
2022-07-31T09:56:39.712Z,97072.40
2022-07-31T09:59:13.746Z,97075.55
2022-07-31T10:01:49.169Z,97082.01
2022-07-31T10:04:24.339Z,97077.80
2022-07-31T10:06:58.418Z,97087.05
2022-07-31T10:09:34.429Z,97081.91
2022-07-31T10:12:24.459Z,97089.65
2022-07-31T10:14:58.816Z,97087.65
2022-07-31T10:17:36.254Z,97094.54
2022-07-31T10:20:44.750Z,97101.19
2022-07-31T10:23:41.027Z,97099.16
2022-07-31T10:26:19.735Z,97100.64
2022-07-31T10:28:56.307Z,97106.27
2022-07-31T10:31:31.581Z,97108.66
2022-07-31T10:34:06.697Z,97106.78
2022-07-31T10:37:01.463Z,97101.50
2022-07-31T10:40:05.767Z,97104.23
2022-07-31T10:42:49.826Z,97107.06
2022-07-31T10:45:26.935Z,97110.45
2022-07-31T10:48:27.297Z,97108.48
2022-07-31T10:51:14.312Z,97105.85
2022-07-31T10:54:07.737Z,97104.57
2022-07-31T10:57:25.063Z,97105.77
2022-07-31T11:00:19.109Z,97108.73
2022-07-31T11:03:19.977Z,97111.08
2022-07-31T11:06:11.819Z,97114.70
2022-07-31T11:08:59.297Z,97111.37
2022-07-31T11:11:50.497Z,97112.97
2022-07-31T11:14:47.218Z,97114.73
2022-07-31T11:18:23.520Z,97117.63
2022-07-31T11:20:38.658Z,97117.59
2022-07-31T11:23:15.496Z,97122.05
2022-07-31T11:25:50.419Z,97122.91
2022-07-31T11:28:25.137Z,97125.92
2022-07-31T11:31:00.935Z,97125.03
2022-07-31T11:33:41.643Z,97127.29
2022-07-31T11:36:18.228Z,97129.93
2022-07-31T11:38:53.071Z,97130.52
2022-07-31T11:41:39.787Z,97132.35
2022-07-31T11:44:21.901Z,97135.17
2022-07-31T11:46:58.990Z,97133.46
2022-07-31T11:49:47.943Z,97134.84
2022-07-31T11:52:30.664Z,97134.77
2022-07-31T11:55:12.978Z,97135.64
2022-07-31T11:57:52.357Z,97131.73
2022-07-31T12:00:29.657Z,97133.52
2022-07-31T12:03:06.097Z,97133.08
2022-07-31T12:05:45.059Z,97137.37
2022-07-31T12:08:19.818Z,97139.83
2022-07-31T12:10:53.578Z,97144.29
2022-07-31T12:13:27.777Z,97148.65
2022-07-31T12:16:06.378Z,97151.61
2022-07-31T12:18:52.739Z,97150.70
2022-07-31T12:21:34.937Z,97157.66
2022-07-31T12:24:14.818Z,97154.77
2022-07-31T12:26:59.776Z,97156.48
2022-07-31T12:29:37.497Z,97159.11
2022-07-31T12:32:10.979Z,97164.00
2022-07-31T12:34:45.937Z,97165.86
2022-07-31T12:37:22.220Z,97166.95
2022-07-31T12:40:01.433Z,97167.20
2022-07-31T12:42:41.787Z,97168.48
2022-07-31T12:45:20.160Z,97175.58
2022-07-31T12:47:57.553Z,97177.42
2022-07-31T12:50:31.937Z,97176.03
2022-07-31T12:53:06.584Z,97178.92
2022-07-31T12:55:39.978Z,97181.02
2022-07-31T12:58:13.506Z,97178.92
2022-07-31T13:00:46.338Z,97179.67
2022-07-31T13:03:19.515Z,97184.13
2022-07-31T13:05:52.284Z,97187.05
2022-07-31T13:08:24.939Z,97184.27
2022-07-31T13:10:58.257Z,97188.02
2022-07-31T13:13:31.776Z,97191.19
2022-07-31T13:16:06.549Z,97190.89
2022-07-31T13:18:39.537Z,97193.36
2022-07-31T13:21:14.457Z,97190.83
2022-07-31T13:23:47.297Z,97194.37
2022-07-31T13:26:18.539Z,97195.05
2022-07-31T13:28:51.656Z,97190.55
2022-07-31T13:31:26.503Z,97192.23
2022-07-31T13:33:59.539Z,97189.20
2022-07-31T13:36:38.754Z,97191.28
2022-07-31T13:39:12.815Z,97191.48
2022-07-31T13:41:47.674Z,97189.62
2022-07-31T13:44:22.077Z,97188.27
2022-07-31T13:46:54.780Z,97188.97
2022-07-31T13:49:32.573Z,97190.92
2022-07-31T13:52:05.796Z,97192.34
2022-07-31T13:54:36.967Z,97195.27
2022-07-31T13:57:09.736Z,97197.21
2022-07-31T13:59:42.942Z,97200.01
2022-07-31T14:02:15.968Z,97202.48
2022-07-31T14:04:48.978Z,97201.70
2022-07-31T14:07:20.297Z,97201.77
2022-07-31T14:09:55.769Z,97204.46
2022-07-31T14:12:32.257Z,97204.70
2022-07-31T14:15:07.616Z,97200.61
2022-07-31T14:17:41.939Z,97203.74
2022-07-31T14:20:16.057Z,97201.86
2022-07-31T14:22:48.777Z,97202.52
2022-07-31T14:25:21.865Z,97203.06
2022-07-31T14:27:54.535Z,97202.77
2022-07-31T14:30:28.297Z,97201.52
2022-07-31T14:33:03.105Z,97201.77
2022-07-31T14:35:36.617Z,97198.77
2022-07-31T14:38:12.856Z,97202.40
2022-07-31T14:40:45.858Z,97200.22
2022-07-31T14:43:18.977Z,97203.23
2022-07-31T14:45:54.257Z,97209.09
2022-07-31T14:48:27.735Z,97204.55
2022-07-31T14:51:01.061Z,97209.67
2022-07-31T14:53:34.458Z,97210.66
2022-07-31T14:56:08.854Z,97215.90
2022-07-31T14:58:58.363Z,97216.86
2022-07-31T15:01:33.056Z,97218.65
2022-07-31T15:04:11.615Z,97219.69
2022-07-31T15:06:56.230Z,97219.49
2022-07-31T15:09:38.779Z,97223.35
2022-07-31T15:12:17.159Z,97225.11
2022-07-31T15:14:51.415Z,97223.59
2022-07-31T15:17:25.319Z,97222.42
2022-07-31T15:19:58.260Z,97226.30
2022-07-31T15:22:31.815Z,97229.48
2022-07-31T15:25:04.619Z,97230.77
2022-07-31T15:27:37.739Z,97228.83
2022-07-31T15:30:12.975Z,97230.35
2022-07-31T15:32:45.858Z,97228.02
2022-07-31T15:35:18.637Z,97233.38
2022-07-31T15:37:51.858Z,97237.53
2022-07-31T15:40:24.998Z,97234.45
2022-07-31T15:42:58.793Z,97236.86
2022-07-31T15:45:31.268Z,97239.08
2022-07-31T15:48:08.300Z,97239.61
2022-07-31T15:50:44.340Z,97239.74
2022-07-31T15:53:17.180Z,97235.73
2022-07-31T15:55:50.863Z,97232.52
2022-07-31T15:58:24.418Z,97230.23
2022-07-31T16:01:01.878Z,97237.00
2022-07-31T16:03:50.655Z,97238.12
2022-07-31T16:06:32.236Z,97240.27
2022-07-31T16:09:05.820Z,97241.91
2022-07-31T16:12:04.511Z,97245.81
2022-07-31T16:14:35.379Z,97244.64
2022-07-31T16:17:08.250Z,97238.21
2022-07-31T16:19:41.341Z,97239.96
2022-07-31T16:22:14.181Z,97242.87
2022-07-31T16:24:48.619Z,97243.71
2022-07-31T16:27:21.541Z,97242.71
2022-07-31T16:30:00.997Z,97240.30
2022-07-31T16:32:37.615Z,97241.02
2022-07-31T16:35:12.659Z,97246.13
2022-07-31T16:37:51.327Z,97242.82
2022-07-31T16:40:30.942Z,97240.99
2022-07-31T16:43:47.872Z,97242.92
2022-07-31T16:46:00.817Z,97244.06
2022-07-31T16:48:34.057Z,97243.73
2022-07-31T16:51:08.581Z,97239.71
2022-07-31T16:54:14.352Z,97235.56
2022-07-31T16:56:37.866Z,97239.98
2022-07-31T16:59:10.541Z,97240.98
2022-07-31T17:01:53.880Z,97243.34
2022-07-31T17:04:35.417Z,97248.69
2022-07-31T17:07:10.458Z,97250.91
2022-07-31T17:09:43.057Z,97253.16
2022-07-31T17:12:18.316Z,97253.89
2022-07-31T17:14:51.230Z,97253.84
2022-07-31T17:17:24.378Z,97256.89
2022-07-31T17:19:59.354Z,97252.95
2022-07-31T17:22:35.029Z,97252.06
2022-07-31T17:25:08.579Z,97255.02
2022-07-31T17:27:42.740Z,97252.58
2022-07-31T17:30:18.228Z,97255.53
2022-07-31T17:32:51.379Z,97260.41
2022-07-31T17:35:25.024Z,97263.13
2022-07-31T17:37:57.577Z,97265.27
2022-07-31T17:40:43.458Z,97266.23
2022-07-31T17:43:27.804Z,97266.04
2022-07-31T17:46:17.547Z,97269.41
2022-07-31T17:48:57.484Z,97269.93
2022-07-31T17:51:33.194Z,97271.29
2022-07-31T17:54:10.937Z,97277.20
2022-07-31T17:56:45.147Z,97277.64
2022-07-31T17:59:25.036Z,97276.11
2022-07-31T18:02:00.622Z,97275.50
2022-07-31T18:04:38.579Z,97274.38
2022-07-31T18:07:13.142Z,97273.03
2022-07-31T18:09:45.898Z,97272.71
2022-07-31T18:12:18.411Z,97273.05
2022-07-31T18:14:50.858Z,97273.16
2022-07-31T18:17:23.639Z,97276.20
2022-07-31T18:19:56.301Z,97280.11
2022-07-31T18:22:34.867Z,97288.63
2022-07-31T18:25:22.345Z,97291.81
2022-07-31T18:27:58.545Z,97291.04
2022-07-31T18:30:33.743Z,97293.48
2022-07-31T18:33:08.736Z,97289.88
2022-07-31T18:35:42.997Z,97293.66
2022-07-31T18:38:15.857Z,97298.01
2022-07-31T18:40:48.536Z,97302.55
2022-07-31T18:43:21.227Z,97304.52
2022-07-31T18:45:53.662Z,97308.42
2022-07-31T18:48:28.177Z,97309.38
2022-07-31T18:51:04.986Z,97313.05
2022-07-31T18:53:38.021Z,97315.16
2022-07-31T18:56:12.536Z,97317.31
2022-07-31T18:58:46.224Z,97318.92
2022-07-31T19:01:20.645Z,97319.02
2022-07-31T19:03:55.536Z,97321.34
2022-07-31T19:06:28.457Z,97318.62
2022-07-31T19:09:01.831Z,97327.38
2022-07-31T19:11:34.719Z,97330.51
2022-07-31T19:14:07.305Z,97331.05
2022-07-31T19:16:40.057Z,97334.23
2022-07-31T19:19:14.698Z,97335.34
2022-07-31T19:21:53.139Z,97339.73
2022-07-31T19:24:26.100Z,97340.65
2022-07-31T19:26:59.457Z,97342.11
2022-07-31T19:29:34.425Z,97345.77
2022-07-31T19:32:07.898Z,97344.79
2022-07-31T19:34:42.068Z,97347.25
2022-07-31T19:37:22.096Z,97342.30
2022-07-31T19:39:54.777Z,97343.41
2022-07-31T19:42:27.655Z,97344.21
2022-07-31T19:45:00.239Z,97341.98
2022-07-31T19:47:32.856Z,97343.74
2022-07-31T19:50:05.783Z,97342.69
2022-07-31T19:52:38.415Z,97342.77
2022-07-31T19:55:15.339Z,97342.79
2022-07-31T19:57:48.535Z,97343.81
2022-07-31T20:00:26.938Z,97339.91
2022-07-31T20:03:00.828Z,97336.55
2022-07-31T20:05:34.416Z,97337.52
2022-07-31T20:08:05.424Z,97339.83
2022-07-31T20:10:38.415Z,97340.64
2022-07-31T20:13:14.221Z,97338.41
2022-07-31T20:15:52.039Z,97336.77
2022-07-31T20:18:29.087Z,97336.82
2022-07-31T20:21:07.558Z,97334.04
2022-07-31T20:23:41.935Z,97332.52
2022-07-31T20:26:16.417Z,97334.30
2022-07-31T20:28:53.015Z,97335.63
2022-07-31T20:31:25.619Z,97337.41
2022-07-31T20:33:59.259Z,97337.45
2022-07-31T20:36:32.615Z,97337.73
2022-07-31T20:39:05.541Z,97337.08
2022-07-31T20:41:37.939Z,97330.21
2022-07-31T20:44:10.694Z,97335.30
2022-07-31T20:46:43.538Z,97334.39
2022-07-31T20:49:19.476Z,97334.92
2022-07-31T20:52:11.815Z,97334.84
2022-07-31T20:54:44.657Z,97330.40
2022-07-31T20:57:17.784Z,97332.45
2022-07-31T20:59:50.416Z,97333.43
2022-07-31T21:02:23.017Z,97331.66
2022-07-31T21:04:55.697Z,97333.73
2022-07-31T21:07:29.144Z,97336.00
2022-07-31T21:09:59.974Z,97335.02
2022-07-31T21:12:32.500Z,97338.02
2022-07-31T21:15:06.057Z,97336.83
2022-07-31T21:17:59.219Z,97334.05
2022-07-31T21:20:52.302Z,97331.16
2022-07-31T21:23:24.948Z,97333.71
2022-07-31T21:25:59.895Z,97335.47
2022-07-31T21:28:32.974Z,97336.36
2022-07-31T21:31:06.695Z,97334.80
2022-07-31T21:33:39.903Z,97335.98
2022-07-31T21:36:16.109Z,97340.02
2022-07-31T21:38:50.861Z,97334.84
2022-07-31T21:41:25.977Z,97334.35
2022-07-31T21:44:00.018Z,97341.82
2022-07-31T21:46:40.855Z,97338.89
2022-07-31T21:49:20.725Z,97346.52
2022-07-31T21:51:54.857Z,97342.10
2022-07-31T21:54:27.297Z,97343.54
2022-07-31T21:57:00.096Z,97348.02
2022-07-31T21:59:32.537Z,97348.54
2022-07-31T22:02:06.135Z,97350.48
2022-07-31T22:05:00.378Z,97348.23
2022-07-31T22:07:42.655Z,97348.38
2022-07-31T22:10:18.018Z,97347.61
2022-07-31T22:12:51.458Z,97349.23
2022-07-31T22:15:24.056Z,97349.02
2022-07-31T22:17:57.138Z,97352.84
2022-07-31T22:20:30.418Z,97351.32
2022-07-31T22:23:07.979Z,97353.13
2022-07-31T22:25:40.978Z,97355.89
2022-07-31T22:28:14.619Z,97354.61
2022-07-31T22:30:48.021Z,97353.74
2022-07-31T22:33:20.579Z,97355.07
2022-07-31T22:35:59.927Z,97357.31
2022-07-31T22:38:33.458Z,97357.53
2022-07-31T22:41:06.098Z,97359.17
2022-07-31T22:44:11.138Z,97356.39
2022-07-31T22:46:32.714Z,97357.88
2022-07-31T22:49:07.585Z,97354.11
2022-07-31T22:51:44.817Z,97354.46
2022-07-31T22:54:20.738Z,97354.82
2022-07-31T22:56:53.507Z,97352.86
2022-07-31T22:59:26.295Z,97352.25
2022-07-31T23:01:59.747Z,97355.99
2022-07-31T23:04:37.178Z,97351.42
2022-07-31T23:07:09.820Z,97356.53
2022-07-31T23:09:42.659Z,97355.95
2022-07-31T23:12:15.056Z,97357.91
2022-07-31T23:14:47.746Z,97358.94
2022-07-31T23:17:23.251Z,97358.13
2022-07-31T23:19:57.186Z,97358.11
2022-07-31T23:22:30.838Z,97358.59
2022-07-31T23:25:06.899Z,97359.43
2022-07-31T23:27:40.378Z,97357.69
2022-07-31T23:30:14.740Z,97360.80
2022-07-31T23:32:47.146Z,97363.02
2022-07-31T23:35:19.634Z,97360.70
2022-07-31T23:37:52.263Z,97364.11
2022-07-31T23:40:25.777Z,97364.88
2022-07-31T23:42:56.466Z,97366.65
2022-07-31T23:45:31.495Z,97368.48
2022-07-31T23:48:04.617Z,97367.80
2022-07-31T23:50:37.736Z,97368.13
2022-07-31T23:53:10.459Z,97370.27
2022-07-31T23:55:45.896Z,97370.35
2022-07-31T23:58:19.219Z,97369.17
